Abraham González International Airport
MMCS : now visible

Airfield :











YOU CAN JOIN US ON...

 
LOGIN :

Register | Disclaimer

   EN    FR    IT 

 









Legend :    VFR   Marginal VFR   IFR   Intensive IFR   Very Intensive IFR
Visi :
Ceiling :
>= 8 km
>= 3000ft
5 to 8 km
1000 to 3000 ft
1500m to 5 km
500 to 1000 ft
800 to 1500m
200 to 500 ft
< 800m
< 200 ft
Symbols :   Thunderstorms  Fog  Heavy snow  Heavy precipitations  Wind > 20 kt






- Airport Elevation : 3904 ft
- IATA code : CJS


MMCS - Abraham González International

CURRENT METAR :
  • 062044Z 02006KT 10SM BKN250 16/01 A3029 RMK SLP201 57025 942 8/002 PRESFR

EXPIRED METARs :
  • 061940Z 04005KT 10SM BKN250 15/02 A3032 RMK 8/002
  • 061843Z 10009KT 10SM OVC250 14/02 A3033 RMK 8/007 HALO

TAF TAF MMCS
Valid from the 06 at 18:00 until the 07 at 18:00 UTC


061702Z 0618/0718 10015KT P6SM BKN250
BECMG 0701/0702 00000KT
FM071600 23010KT P6SM SCT250



MET'MAP, your aeronautical weather chart ! - Copyright ORBIFLY December 2007 - Disclaimer

ORBIFLY MET'MAP TEAM :

Programming & Development : Alexandra Zaïnal
Concept & original design : Baudouin d'Aumeries
Assistance for programming : Marc-Olivier Méhu
Technical & hardware support : Manuel Goepfert

Contact : metmap@orbifly.com




SOURCES & CREDITS :

   NOAA       Earth
Advisory